Hlavní strana
METAR-TAF:

METAR-TAF

Letiště :

Sandnessjøen, Norsko

zeměpisná šířka: 65-58N, zeměpisná délka: 012-28E, výška: 1 m

Aktuální stav počasí

Zpráva byla vytvořena před 32 minutami, v 04:50 UTC
Jižní vítr 15 kt
Teplota 12°C
Vlhkost vzduchu 71%
Tlak 1015 hPa
Viditelnost 10 km a více
Skoro jasno ve výšce 2500 ft
Polojasno ve výšce 6500 ft

METAR: ENST 160450Z 19015KT 9999 FEW025 SCT065 12/07 Q1015 RMK WIND 300FT 18018KT

Čas: 06:22 (05:22 UTC)


TAF: chybějící

Stav a předpovědi počasí z více než 4 000 letišť (zprávy METAR a TAF).

Červené a žluté tečky na mapě představují dostupné meteorologické stanice.

Když kurzor umístíte na tečku, zobrazí se název stanice.

Pak kliknutím zobrazíte stav a předpověď počasí.

Chcete-li změnit mapu, kliknutím na zelené tlačítko se znaménkem +mapu přiblížíte, kliknutím na zelené tlačítko se znaménkem – mapu oddálíte a kliknutím na zelené šipky přejdete na sousední mapy.


METAR-TAF: